createdAt,value
2023-03-25T00:00:23.583Z,0.00
2023-03-25T00:00:53.130Z,0.00
2023-03-25T00:01:15.680Z,0.00
2023-03-25T00:01:38.090Z,0.00
2023-03-25T00:02:13.926Z,0.00
2023-03-25T00:02:47.073Z,0.00
2023-03-25T00:03:17.409Z,0.00
2023-03-25T00:03:51.281Z,0.00
2023-03-25T00:04:21.416Z,0.00
2023-03-25T00:04:53.409Z,0.00
2023-03-25T00:05:16.173Z,0.00
2023-03-25T00:05:38.925Z,0.00
2023-03-25T00:06:14.744Z,0.00
2023-03-25T00:06:48.209Z,0.00
2023-03-25T00:07:17.594Z,0.00
2023-03-25T00:07:48.963Z,0.00
2023-03-25T00:08:21.196Z,0.00
2023-03-25T00:08:53.060Z,0.00
2023-03-25T00:09:15.722Z,0.00
2023-03-25T00:09:38.168Z,0.00
2023-03-25T00:10:13.256Z,0.00
2023-03-25T00:10:48.110Z,0.00
2023-03-25T00:11:17.808Z,0.00
2023-03-25T00:11:50.226Z,0.00
2023-03-25T00:12:21.592Z,0.00
2023-03-25T00:12:53.590Z,0.00
2023-03-25T00:13:17.654Z,0.00
2023-03-25T00:13:38.562Z,0.00
2023-03-25T00:14:14.630Z,0.00
2023-03-25T00:14:45.135Z,0.00
2023-03-25T00:15:17.518Z,0.00
2023-03-25T00:15:49.451Z,0.00
2023-03-25T00:16:21.872Z,0.00
2023-03-25T00:16:53.373Z,0.00
2023-03-25T00:17:16.051Z,0.00
2023-03-25T00:17:38.881Z,0.00
2023-03-25T00:18:13.158Z,0.00
2023-03-25T00:19:17.690Z,0.00
2023-03-25T00:19:50.045Z,0.00
2023-03-25T00:20:21.198Z,0.00
2023-03-25T00:20:53.658Z,0.00
2023-03-25T00:21:16.856Z,0.00
2023-03-25T00:21:39.064Z,0.00
2023-03-25T00:22:13.362Z,0.00
2023-03-25T00:22:50.472Z,0.00
2023-03-25T00:23:17.635Z,0.00
2023-03-25T00:23:50.089Z,0.00
2023-03-25T00:24:21.491Z,0.00
2023-03-25T00:24:53.605Z,0.00
2023-03-25T00:25:16.287Z,0.00
2023-03-25T00:25:38.646Z,0.00
2023-03-25T00:26:13.093Z,0.00
2023-03-25T00:26:45.068Z,0.00
2023-03-25T00:27:16.991Z,0.00
2023-03-25T00:27:50.799Z,0.00
2023-03-25T00:28:21.633Z,0.00
2023-03-25T00:28:53.884Z,0.00
2023-03-25T00:29:17.197Z,0.00
2023-03-25T00:29:39.471Z,0.00
2023-03-25T00:30:13.477Z,0.00
2023-03-25T00:30:46.122Z,0.00
2023-03-25T00:31:19.094Z,0.00
2023-03-25T00:31:51.563Z,0.00
2023-03-25T00:32:22.277Z,0.00
2023-03-25T00:32:54.479Z,0.00
2023-03-25T00:33:17.026Z,0.00
2023-03-25T00:33:39.632Z,0.00
2023-03-25T00:34:13.353Z,0.00
2023-03-25T00:34:47.071Z,0.00
2023-03-25T00:35:17.182Z,0.00
2023-03-25T00:35:49.612Z,0.00
2023-03-25T00:36:21.559Z,0.00
2023-03-25T00:36:53.438Z,0.00
2023-03-25T00:37:17.069Z,0.00
2023-03-25T00:37:39.603Z,0.00
2023-03-25T00:38:13.079Z,0.00
2023-03-25T00:38:45.467Z,0.00
2023-03-25T00:39:17.080Z,0.00
2023-03-25T00:39:49.126Z,0.00
2023-03-25T00:40:21.792Z,0.00
2023-03-25T00:40:53.534Z,0.00
2023-03-25T00:41:16.641Z,0.00
2023-03-25T00:41:39.201Z,0.00
2023-03-25T00:42:13.338Z,0.00
2023-03-25T00:42:45.039Z,0.00
2023-03-25T00:43:17.349Z,0.00
2023-03-25T00:43:49.081Z,0.00
2023-03-25T00:44:21.236Z,0.00
2023-03-25T00:44:53.992Z,0.00
2023-03-25T00:45:16.115Z,0.00
2023-03-25T00:45:38.281Z,0.00
2023-03-25T00:46:14.473Z,0.00
2023-03-25T00:46:45.122Z,0.00
2023-03-25T00:47:17.068Z,0.00
2023-03-25T00:47:49.544Z,0.00
2023-03-25T00:48:21.007Z,0.00
2023-03-25T00:48:54.784Z,0.00
2023-03-25T00:49:15.876Z,0.00
2023-03-25T00:49:38.446Z,0.00
2023-03-25T00:50:13.086Z,0.00
2023-03-25T00:50:45.190Z,0.00
2023-03-25T00:51:17.391Z,0.00
2023-03-25T00:51:53.189Z,0.00
2023-03-25T00:52:20.946Z,0.00
2023-03-25T00:52:56.004Z,0.00
2023-03-25T00:53:16.335Z,0.00
2023-03-25T00:53:38.704Z,0.00
2023-03-25T00:54:13.153Z,0.00
2023-03-25T00:54:44.938Z,0.00
2023-03-25T00:55:17.039Z,0.00
2023-03-25T00:55:49.434Z,0.00
2023-03-25T00:56:21.110Z,0.00
2023-03-25T00:56:53.054Z,0.00
2023-03-25T00:57:15.758Z,0.00
2023-03-25T00:57:38.206Z,0.00
2023-03-25T00:58:13.212Z,0.00
2023-03-25T00:58:45.078Z,0.00
2023-03-25T00:59:16.927Z,0.00
2023-03-25T00:59:50.779Z,0.00
2023-03-25T01:00:21.769Z,0.00
2023-03-25T01:00:53.063Z,0.00
2023-03-25T01:01:17.561Z,0.00
2023-03-25T01:01:39.840Z,0.00
2023-03-25T01:02:14.103Z,0.00
2023-03-25T01:02:45.388Z,0.00
2023-03-25T01:03:17.386Z,0.00
2023-03-25T01:03:49.302Z,0.00
2023-03-25T01:04:21.567Z,0.00
2023-03-25T01:04:53.301Z,0.00
2023-03-25T01:05:16.177Z,0.00
2023-03-25T01:05:38.719Z,0.00
2023-03-25T01:06:12.964Z,0.00
2023-03-25T01:06:45.280Z,0.00
2023-03-25T01:07:17.042Z,0.00
2023-03-25T01:07:48.995Z,0.00
2023-03-25T01:08:21.181Z,0.00
2023-03-25T01:08:53.051Z,0.00
2023-03-25T01:09:16.765Z,0.00
2023-03-25T01:09:39.189Z,0.00
2023-03-25T01:10:13.043Z,0.00
2023-03-25T01:10:44.912Z,0.00
2023-03-25T01:11:17.379Z,0.00
2023-03-25T01:11:49.138Z,0.00
2023-03-25T01:12:21.218Z,0.00
2023-03-25T01:12:53.315Z,0.00
2023-03-25T01:13:18.307Z,0.00
2023-03-25T01:13:40.618Z,0.00
2023-03-25T01:14:13.023Z,0.00
2023-03-25T01:14:44.963Z,0.00
2023-03-25T01:15:17.189Z,0.00
2023-03-25T01:15:49.385Z,0.00
2023-03-25T01:16:21.126Z,0.00
2023-03-25T01:16:53.055Z,0.00
2023-03-25T01:17:16.560Z,0.00
2023-03-25T01:17:38.927Z,0.00
2023-03-25T01:18:14.474Z,0.00
2023-03-25T01:18:45.336Z,0.00
2023-03-25T01:19:19.478Z,0.00
2023-03-25T01:19:49.102Z,0.00
2023-03-25T01:20:21.077Z,0.00
2023-03-25T01:20:52.925Z,0.00
2023-03-25T01:21:15.966Z,0.00
2023-03-25T01:21:38.284Z,0.00
2023-03-25T01:22:13.144Z,0.00
2023-03-25T01:22:45.275Z,0.00
2023-03-25T01:23:17.332Z,0.00
2023-03-25T01:23:49.587Z,0.00
2023-03-25T01:24:20.982Z,0.00
2023-03-25T01:24:53.123Z,0.00
2023-03-25T01:25:18.303Z,0.00
2023-03-25T01:25:40.551Z,0.00
2023-03-25T01:26:13.358Z,0.00
2023-03-25T01:26:45.290Z,0.00
2023-03-25T01:27:17.635Z,0.00
2023-03-25T01:27:49.018Z,0.00
2023-03-25T01:28:21.026Z,0.00
2023-03-25T01:28:52.892Z,0.00
2023-03-25T01:29:15.657Z,0.00
2023-03-25T01:29:37.935Z,0.00
2023-03-25T01:30:13.316Z,0.00
2023-03-25T01:30:44.913Z,0.00
2023-03-25T01:31:22.623Z,0.00
2023-03-25T01:31:49.270Z,0.00
2023-03-25T01:32:22.572Z,0.00
2023-03-25T01:32:53.233Z,0.00
2023-03-25T01:33:16.562Z,0.00
2023-03-25T01:33:38.958Z,0.00
2023-03-25T01:34:13.578Z,0.00
2023-03-25T01:34:45.062Z,0.00
2023-03-25T01:35:17.147Z,0.00
2023-03-25T01:35:49.636Z,0.00
2023-03-25T01:36:21.260Z,0.00
2023-03-25T01:36:53.142Z,0.00
2023-03-25T01:37:16.745Z,0.00
2023-03-25T01:37:39.448Z,0.00
2023-03-25T01:38:12.893Z,0.00
2023-03-25T01:38:45.022Z,0.00
2023-03-25T01:39:16.945Z,0.00
2023-03-25T01:39:49.037Z,0.00
2023-03-25T01:40:21.384Z,0.00
2023-03-25T01:40:53.046Z,0.00
2023-03-25T01:41:16.048Z,0.00
2023-03-25T01:41:49.111Z,0.00
2023-03-25T01:42:13.295Z,0.00
2023-03-25T01:42:44.933Z,0.00
2023-03-25T01:43:17.288Z,0.00
2023-03-25T01:43:49.169Z,0.00
2023-03-25T01:44:21.260Z,0.00
2023-03-25T01:44:52.952Z,0.00
2023-03-25T01:45:15.909Z,0.00
2023-03-25T01:45:38.311Z,0.00
2023-03-25T01:46:14.494Z,0.00
2023-03-25T01:46:45.055Z,0.00
2023-03-25T01:47:16.985Z,0.00
2023-03-25T01:47:49.119Z,0.00
2023-03-25T01:48:21.436Z,0.00
2023-03-25T01:48:53.011Z,0.00
2023-03-25T01:49:15.909Z,0.00
2023-03-25T01:49:38.232Z,0.00
2023-03-25T01:50:12.938Z,0.00
2023-03-25T01:50:45.239Z,0.00
2023-03-25T01:51:17.233Z,0.00
2023-03-25T01:51:49.302Z,0.00
2023-03-25T01:52:20.902Z,0.00
2023-03-25T01:52:53.278Z,0.00
2023-03-25T01:53:16.522Z,0.00
2023-03-25T01:53:38.922Z,0.00
2023-03-25T01:54:13.033Z,0.00
2023-03-25T01:54:45.121Z,0.00
2023-03-25T01:55:17.060Z,0.00
2023-03-25T01:55:49.252Z,0.00
2023-03-25T01:56:20.854Z,0.00
2023-03-25T01:56:53.047Z,0.00
2023-03-25T01:57:15.866Z,0.00
2023-03-25T01:57:38.462Z,0.00
2023-03-25T01:58:13.103Z,0.00
2023-03-25T01:58:45.003Z,0.00
2023-03-25T01:59:17.017Z,0.00
2023-03-25T01:59:49.128Z,0.00
2023-03-25T02:00:21.123Z,0.00
2023-03-25T02:00:53.033Z,0.00
2023-03-25T02:01:17.050Z,0.00
2023-03-25T02:01:39.146Z,0.00
2023-03-25T02:02:13.046Z,0.00
2023-03-25T02:02:45.094Z,0.00
2023-03-25T02:03:17.278Z,0.00
2023-03-25T02:04:24.012Z,0.00
2023-03-25T02:04:53.433Z,0.00
2023-03-25T02:05:17.399Z,0.00
2023-03-25T02:05:39.149Z,0.00
2023-03-25T02:06:13.472Z,0.00
2023-03-25T02:06:45.595Z,0.00
2023-03-25T02:07:17.243Z,0.00
2023-03-25T02:07:49.946Z,0.00
2023-03-25T02:08:20.968Z,0.00
2023-03-25T02:08:53.213Z,0.00
2023-03-25T02:09:16.068Z,0.00
2023-03-25T02:09:38.392Z,0.00
2023-03-25T02:10:13.360Z,0.00
2023-03-25T02:10:45.107Z,0.00
2023-03-25T02:11:17.589Z,0.00
2023-03-25T02:11:49.139Z,0.00
2023-03-25T02:12:21.332Z,0.00
2023-03-25T02:12:53.011Z,0.00
2023-03-25T02:13:16.091Z,0.00
2023-03-25T02:13:38.717Z,0.00
2023-03-25T02:14:13.108Z,0.00
2023-03-25T02:14:45.152Z,0.00
2023-03-25T02:15:18.851Z,0.00
2023-03-25T02:15:49.762Z,0.00
2023-03-25T02:16:21.790Z,0.00
2023-03-25T02:16:53.884Z,0.00
2023-03-25T02:17:16.585Z,0.00
2023-03-25T02:17:38.948Z,0.00
2023-03-25T02:18:13.119Z,0.00
2023-03-25T02:18:44.976Z,0.00
2023-03-25T02:19:17.061Z,0.00
2023-03-25T02:19:49.027Z,0.00
2023-03-25T02:20:21.538Z,0.00
2023-03-25T02:20:53.225Z,0.00
2023-03-25T02:21:15.626Z,0.00
2023-03-25T02:21:37.967Z,0.00
2023-03-25T02:22:13.067Z,0.00
2023-03-25T02:22:47.435Z,0.00
2023-03-25T02:23:19.033Z,0.00
2023-03-25T02:23:49.089Z,0.00
2023-03-25T02:24:20.822Z,0.00
2023-03-25T02:24:54.767Z,0.00
2023-03-25T02:25:17.125Z,0.00
2023-03-25T02:25:40.303Z,0.00
2023-03-25T02:26:13.141Z,0.00
2023-03-25T02:26:45.936Z,0.00
2023-03-25T02:27:18.258Z,0.00
2023-03-25T02:27:49.174Z,0.00
2023-03-25T02:28:20.956Z,0.00
2023-03-25T02:28:53.046Z,0.00
2023-03-25T02:29:15.950Z,0.00
2023-03-25T02:29:38.473Z,0.00
2023-03-25T02:30:14.012Z,0.00
2023-03-25T02:30:45.609Z,0.00
2023-03-25T02:31:17.176Z,0.00
2023-03-25T02:31:48.943Z,0.00
2023-03-25T02:32:20.916Z,0.00
2023-03-25T02:32:52.996Z,0.00
2023-03-25T02:33:15.780Z,0.00
2023-03-25T02:33:38.185Z,0.00
2023-03-25T02:34:13.968Z,0.00
2023-03-25T02:34:44.869Z,0.00
2023-03-25T02:35:16.980Z,0.00
2023-03-25T02:35:49.627Z,0.00
2023-03-25T02:36:22.287Z,0.00
2023-03-25T02:36:52.960Z,0.00
2023-03-25T02:37:15.771Z,0.00
2023-03-25T02:37:40.035Z,0.00
2023-03-25T02:38:14.715Z,0.00
2023-03-25T02:38:45.238Z,0.00
2023-03-25T02:39:16.947Z,0.00
2023-03-25T02:39:49.204Z,0.00
2023-03-25T02:40:20.952Z,0.00
2023-03-25T02:40:53.065Z,0.00
2023-03-25T02:41:15.864Z,0.00
2023-03-25T02:41:38.354Z,0.00
2023-03-25T02:42:15.533Z,0.00
2023-03-25T02:42:45.093Z,0.00
2023-03-25T02:43:17.589Z,0.00
2023-03-25T02:43:49.341Z,0.00
2023-03-25T02:44:21.174Z,0.00
2023-03-25T02:44:53.020Z,0.00
2023-03-25T02:45:15.898Z,0.00
2023-03-25T02:45:38.548Z,0.00
2023-03-25T02:46:13.162Z,0.00
2023-03-25T02:46:45.138Z,0.00
2023-03-25T02:47:16.936Z,0.00
2023-03-25T02:47:49.071Z,0.00
2023-03-25T02:48:21.187Z,0.00
2023-03-25T02:48:53.118Z,0.00
2023-03-25T02:49:16.692Z,0.00
2023-03-25T02:49:38.437Z,0.00
2023-03-25T02:50:13.109Z,0.00
2023-03-25T02:50:45.878Z,0.00
2023-03-25T02:51:18.323Z,0.00
2023-03-25T02:51:49.089Z,0.00
2023-03-25T02:52:21.030Z,0.00
2023-03-25T02:52:53.266Z,0.00
2023-03-25T02:53:17.070Z,0.00
2023-03-25T02:53:38.889Z,0.00
2023-03-25T02:54:13.800Z,0.00
2023-03-25T02:54:45.531Z,0.00
2023-03-25T02:55:17.637Z,0.00
2023-03-25T02:55:49.102Z,0.00
2023-03-25T02:56:20.907Z,0.00
2023-03-25T02:56:53.121Z,0.00
2023-03-25T02:57:17.792Z,0.00
2023-03-25T02:57:38.074Z,0.00
2023-03-25T02:58:13.059Z,0.00
2023-03-25T02:58:44.983Z,0.00
2023-03-25T02:59:18.938Z,0.00
2023-03-25T02:59:49.701Z,0.00
2023-03-25T03:00:35.884Z,0.00
2023-03-25T03:00:49.740Z,0.00
2023-03-25T03:01:21.653Z,0.00
2023-03-25T03:01:57.284Z,0.00
2023-03-25T03:02:19.934Z,0.00
2023-03-25T03:02:42.462Z,0.00
2023-03-25T03:03:59.248Z,0.00
2023-03-25T03:04:19.738Z,0.00
2023-03-25T03:05:21.194Z,0.00
2023-03-25T03:05:38.673Z,0.00
2023-03-25T03:06:13.095Z,0.00
2023-03-25T03:06:44.775Z,0.00
2023-03-25T03:07:18.813Z,0.00
2023-03-25T03:07:49.009Z,0.00
2023-03-25T03:08:20.980Z,0.00
2023-03-25T03:08:53.855Z,0.00
2023-03-25T03:09:22.439Z,0.00
2023-03-25T03:09:57.722Z,0.00
2023-03-25T03:10:20.163Z,0.00
2023-03-25T03:10:43.168Z,0.00
2023-03-25T03:11:19.699Z,0.00
2023-03-25T03:11:50.942Z,0.00
2023-03-25T03:12:21.455Z,0.00
2023-03-25T03:12:53.221Z,0.00
2023-03-25T03:13:15.781Z,0.00
2023-03-25T03:13:38.581Z,0.00
2023-03-25T03:14:14.100Z,0.00
2023-03-25T03:14:44.916Z,0.00
2023-03-25T03:15:21.112Z,0.00
2023-03-25T03:15:43.339Z,0.00
2023-03-25T03:16:21.283Z,0.00
2023-03-25T03:16:53.082Z,0.00
2023-03-25T03:17:16.038Z,0.00
2023-03-25T03:17:38.515Z,0.00
2023-03-25T03:18:13.023Z,0.00
2023-03-25T03:18:44.941Z,0.00
2023-03-25T03:19:16.952Z,0.00
2023-03-25T03:19:48.999Z,0.00
2023-03-25T03:20:21.441Z,0.00
2023-03-25T03:20:52.858Z,0.00
2023-03-25T03:21:16.124Z,0.00
2023-03-25T03:21:38.264Z,0.00
2023-03-25T03:22:12.899Z,0.00
2023-03-25T03:22:45.082Z,0.00
2023-03-25T03:23:17.188Z,0.00
2023-03-25T03:23:49.428Z,0.00
2023-03-25T03:24:21.919Z,0.00
2023-03-25T03:24:52.945Z,0.00
2023-03-25T03:25:22.293Z,0.00
2023-03-25T03:25:56.976Z,0.00
2023-03-25T03:26:22.167Z,0.00
2023-03-25T03:26:42.151Z,0.00
2023-03-25T03:27:17.217Z,0.00
2023-03-25T03:27:48.981Z,0.00
2023-03-25T03:28:22.696Z,0.00
2023-03-25T03:28:53.111Z,0.00
2023-03-25T03:29:16.866Z,0.00
2023-03-25T03:29:38.581Z,0.00
2023-03-25T03:30:12.992Z,0.00
2023-03-25T03:30:44.899Z,0.00
2023-03-25T03:31:50.810Z,0.00
2023-03-25T03:32:23.451Z,0.00
2023-03-25T03:32:52.933Z,0.00
2023-03-25T03:33:15.804Z,0.00
2023-03-25T03:33:38.164Z,0.00
2023-03-25T03:34:12.881Z,0.00
2023-03-25T03:34:45.213Z,0.00
2023-03-25T03:35:17.154Z,0.00
2023-03-25T03:35:51.652Z,0.00
2023-03-25T03:36:24.257Z,0.00
2023-03-25T03:36:46.715Z,0.00
2023-03-25T03:37:24.050Z,0.00
2023-03-25T03:37:57.274Z,0.00
2023-03-25T03:38:20.341Z,0.00
2023-03-25T03:38:42.559Z,0.00
2023-03-25T03:39:16.930Z,0.00
2023-03-25T03:39:48.945Z,0.00
2023-03-25T03:40:21.055Z,0.00
2023-03-25T03:40:52.897Z,0.00
2023-03-25T03:41:15.786Z,0.00
2023-03-25T03:41:38.223Z,0.00
2023-03-25T03:42:13.604Z,0.00
2023-03-25T03:42:45.014Z,0.00
2023-03-25T03:43:17.041Z,0.00
2023-03-25T03:43:48.885Z,0.00
2023-03-25T03:44:20.811Z,0.00
2023-03-25T03:44:50.012Z,0.00
2023-03-25T03:45:21.920Z,0.00
2023-03-25T03:45:57.117Z,0.00
2023-03-25T03:46:19.823Z,0.00
2023-03-25T03:46:42.290Z,0.00
2023-03-25T03:47:16.980Z,0.00
2023-03-25T03:47:48.979Z,0.00
2023-03-25T03:48:21.062Z,0.00
2023-03-25T03:48:52.941Z,0.00
2023-03-25T03:49:15.761Z,0.00
2023-03-25T03:49:38.029Z,0.00
2023-03-25T03:50:12.783Z,0.00
2023-03-25T03:50:44.784Z,0.00
2023-03-25T03:51:17.246Z,0.00
2023-03-25T03:51:48.807Z,0.00
2023-03-25T03:52:20.897Z,0.00
2023-03-25T03:52:52.798Z,0.00
2023-03-25T03:53:16.355Z,0.00
2023-03-25T03:53:38.492Z,0.00
2023-03-25T03:54:14.419Z,0.00
2023-03-25T03:54:44.908Z,0.00
2023-03-25T03:55:16.919Z,0.00
2023-03-25T03:55:49.188Z,0.00
2023-03-25T03:56:21.007Z,0.00
2023-03-25T03:56:53.143Z,0.00
2023-03-25T03:57:16.236Z,0.00
2023-03-25T03:57:37.991Z,0.00
2023-03-25T03:58:12.887Z,0.00
2023-03-25T03:58:44.822Z,0.00
2023-03-25T03:59:16.768Z,0.00
2023-03-25T03:59:48.975Z,0.00
2023-03-25T04:00:21.219Z,0.00
2023-03-25T04:00:52.869Z,0.00
2023-03-25T04:01:16.653Z,0.00
2023-03-25T04:01:39.270Z,0.00
2023-03-25T04:02:12.968Z,0.00
2023-03-25T04:02:45.170Z,0.00
2023-03-25T04:03:17.209Z,0.00
2023-03-25T04:03:49.204Z,0.00
2023-03-25T04:04:20.929Z,0.00
2023-03-25T04:04:53.436Z,0.00
2023-03-25T04:05:17.984Z,0.00
2023-03-25T04:05:39.099Z,0.00
2023-03-25T04:06:12.947Z,0.00
2023-03-25T04:06:44.899Z,0.00
2023-03-25T04:07:17.102Z,0.00
2023-03-25T04:07:49.024Z,0.00
2023-03-25T04:08:21.197Z,0.00
2023-03-25T04:08:52.834Z,0.00
2023-03-25T04:09:16.931Z,0.00
2023-03-25T04:09:38.847Z,0.00
2023-03-25T04:10:12.908Z,0.00
2023-03-25T04:10:45.099Z,0.00
2023-03-25T04:11:16.936Z,0.00
2023-03-25T04:11:49.084Z,0.00
2023-03-25T04:12:20.991Z,0.00
2023-03-25T04:12:52.943Z,0.00
2023-03-25T04:13:17.148Z,0.00
2023-03-25T04:13:39.116Z,0.00
2023-03-25T04:14:12.941Z,0.00
2023-03-25T04:14:44.899Z,0.00
2023-03-25T04:15:16.914Z,0.00
2023-03-25T04:15:49.031Z,0.00
2023-03-25T04:16:20.865Z,0.00
2023-03-25T04:16:52.910Z,0.00
2023-03-25T04:17:15.819Z,0.00
2023-03-25T04:17:38.219Z,0.00
2023-03-25T04:18:12.941Z,0.00
2023-03-25T04:18:44.999Z,0.00
2023-03-25T04:19:17.060Z,0.00
2023-03-25T04:19:48.997Z,0.00
2023-03-25T04:20:20.911Z,0.00
2023-03-25T04:20:52.851Z,0.00
2023-03-25T04:21:15.903Z,0.00
2023-03-25T04:21:38.237Z,0.00
2023-03-25T04:22:12.772Z,0.00
2023-03-25T04:22:44.975Z,0.00
2023-03-25T04:23:17.048Z,0.00
2023-03-25T04:23:48.775Z,0.00
2023-03-25T04:24:20.840Z,0.00
2023-03-25T04:24:52.873Z,0.00
2023-03-25T04:25:15.986Z,0.00
2023-03-25T04:25:38.475Z,0.00
2023-03-25T04:26:12.977Z,0.00
2023-03-25T04:26:44.778Z,0.00
2023-03-25T04:27:17.140Z,0.00
2023-03-25T04:27:49.057Z,0.00
2023-03-25T04:28:20.884Z,0.00
2023-03-25T04:28:52.898Z,0.00
2023-03-25T04:29:15.717Z,0.00
2023-03-25T04:29:38.033Z,0.00
2023-03-25T04:30:12.924Z,0.00
2023-03-25T04:30:44.770Z,0.00
2023-03-25T04:31:16.834Z,0.00
2023-03-25T04:31:48.978Z,0.00
2023-03-25T04:32:20.966Z,0.00
2023-03-25T04:32:53.136Z,0.00
2023-03-25T04:33:16.124Z,0.00
2023-03-25T04:33:38.485Z,0.00
2023-03-25T04:34:12.855Z,0.00
2023-03-25T04:34:44.855Z,0.00
2023-03-25T04:35:17.043Z,0.00
2023-03-25T04:35:49.284Z,0.00
2023-03-25T04:36:20.971Z,0.00
2023-03-25T04:36:53.151Z,0.00
2023-03-25T04:37:15.691Z,0.00
2023-03-25T04:37:38.294Z,0.00
2023-03-25T04:38:12.898Z,0.00
2023-03-25T04:38:44.760Z,0.00
2023-03-25T04:39:16.939Z,0.00
2023-03-25T04:39:48.805Z,0.00
2023-03-25T04:40:21.052Z,0.00
2023-03-25T04:40:53.311Z,0.00
2023-03-25T04:41:15.647Z,0.00
2023-03-25T04:41:37.922Z,0.00
2023-03-25T04:42:12.905Z,0.00
2023-03-25T04:42:44.786Z,0.00
2023-03-25T04:43:17.124Z,0.00
2023-03-25T04:43:48.727Z,0.00
2023-03-25T04:44:21.017Z,0.00
2023-03-25T04:44:52.869Z,0.00
2023-03-25T04:45:15.741Z,0.00
2023-03-25T04:45:37.996Z,0.00
2023-03-25T04:46:12.885Z,0.00
2023-03-25T04:46:45.110Z,0.00
2023-03-25T04:47:16.850Z,0.00
2023-03-25T04:47:48.999Z,0.00
2023-03-25T04:48:20.884Z,0.00
2023-03-25T04:48:52.917Z,0.00
2023-03-25T04:49:15.789Z,0.00
2023-03-25T04:49:38.234Z,0.00
2023-03-25T04:50:12.853Z,0.00
2023-03-25T04:50:44.925Z,0.00
2023-03-25T04:51:16.972Z,0.00
2023-03-25T04:51:48.804Z,0.00
2023-03-25T04:52:20.905Z,0.00
2023-03-25T04:52:52.932Z,0.00
2023-03-25T04:53:15.572Z,0.00
2023-03-25T04:53:38.333Z,0.00
2023-03-25T04:54:16.481Z,0.00
2023-03-25T04:54:44.719Z,0.00
2023-03-25T04:55:17.159Z,0.00
2023-03-25T04:55:49.027Z,0.00
2023-03-25T04:56:20.892Z,0.00
2023-03-25T04:56:52.885Z,0.00
2023-03-25T04:57:16.357Z,0.00
2023-03-25T04:57:39.170Z,0.00
2023-03-25T04:58:12.949Z,0.00
2023-03-25T04:58:45.297Z,0.00
2023-03-25T04:59:16.922Z,0.00
2023-03-25T04:59:48.719Z,0.00
2023-03-25T05:00:21.183Z,0.00
2023-03-25T05:00:52.929Z,0.00
2023-03-25T05:01:16.402Z,0.00
2023-03-25T05:01:40.695Z,0.00
2023-03-25T05:02:13.309Z,0.00
2023-03-25T05:02:45.226Z,0.00
2023-03-25T05:03:17.089Z,0.00
2023-03-25T05:03:49.390Z,0.00
2023-03-25T05:04:20.897Z,0.00
2023-03-25T05:04:56.743Z,0.00
2023-03-25T05:05:18.038Z,0.00
2023-03-25T05:05:40.382Z,0.00
2023-03-25T05:06:13.007Z,0.00
2023-03-25T05:06:45.076Z,0.00
2023-03-25T05:07:17.050Z,0.00
2023-03-25T05:07:49.131Z,0.00
2023-03-25T05:08:21.010Z,0.00
2023-03-25T05:08:52.850Z,0.00
2023-03-25T05:09:18.631Z,0.00
2023-03-25T05:09:41.363Z,0.00
2023-03-25T05:10:13.003Z,0.00
2023-03-25T05:10:45.032Z,0.00
2023-03-25T05:11:17.139Z,0.00
2023-03-25T05:11:49.016Z,0.00
2023-03-25T05:12:20.961Z,0.00
2023-03-25T05:12:53.131Z,0.00
2023-03-25T05:13:17.630Z,0.00
2023-03-25T05:13:41.642Z,0.00
2023-03-25T05:14:13.210Z,0.00
2023-03-25T05:14:44.941Z,0.00
2023-03-25T05:15:17.202Z,0.00
2023-03-25T05:15:49.176Z,0.00
2023-03-25T05:16:21.026Z,0.36
2023-03-25T05:16:53.010Z,0.00
2023-03-25T05:17:15.781Z,0.00
2023-03-25T05:17:38.181Z,0.00
2023-03-25T05:18:12.943Z,0.36
2023-03-25T05:18:44.919Z,0.36
2023-03-25T05:19:17.066Z,0.00
2023-03-25T05:19:49.007Z,0.36
2023-03-25T05:20:20.817Z,0.85
2023-03-25T05:20:52.953Z,0.36
2023-03-25T05:21:15.710Z,1.22
2023-03-25T05:21:38.062Z,0.36
2023-03-25T05:22:13.306Z,1.22
2023-03-25T05:22:45.433Z,1.71
2023-03-25T05:23:17.120Z,2.08
2023-03-25T05:23:48.826Z,2.08
2023-03-25T05:24:21.228Z,2.08
2023-03-25T05:24:53.251Z,2.57
2023-03-25T05:25:15.918Z,2.57
2023-03-25T05:25:38.756Z,2.08
2023-03-25T05:26:12.784Z,2.94
2023-03-25T05:26:45.049Z,2.08
2023-03-25T05:27:17.088Z,2.57
2023-03-25T05:27:48.839Z,2.94
2023-03-25T05:28:20.887Z,2.57
2023-03-25T05:28:52.771Z,2.57
2023-03-25T05:29:15.817Z,2.08
2023-03-25T05:29:38.117Z,1.71
2023-03-25T05:30:13.375Z,2.08
2023-03-25T05:30:44.956Z,1.22
2023-03-25T05:31:17.327Z,1.71
2023-03-25T05:31:49.056Z,2.57
2023-03-25T05:32:21.041Z,2.57
2023-03-25T05:32:56.566Z,3.43
2023-03-25T05:33:15.611Z,3.43
2023-03-25T05:33:38.140Z,3.79
2023-03-25T05:34:12.947Z,3.79
2023-03-25T05:34:45.001Z,5.14
2023-03-25T05:35:17.276Z,5.14
2023-03-25T05:35:49.426Z,5.99
2023-03-25T05:36:21.118Z,5.99
2023-03-25T05:36:52.936Z,6.48
2023-03-25T05:37:15.713Z,6.48
2023-03-25T05:37:38.389Z,5.99
2023-03-25T05:38:12.821Z,5.14
2023-03-25T05:38:45.424Z,4.28
2023-03-25T05:39:17.237Z,3.43
2023-03-25T05:39:48.975Z,4.77
2023-03-25T05:40:21.264Z,5.14
2023-03-25T05:40:52.989Z,5.63
2023-03-25T05:41:15.681Z,5.63
2023-03-25T05:41:38.290Z,7.34
2023-03-25T05:42:13.141Z,9.05
2023-03-25T05:42:45.782Z,8.56
2023-03-25T05:43:18.386Z,9.05
2023-03-25T05:43:49.054Z,9.54
2023-03-25T05:44:21.281Z,9.54
2023-03-25T05:44:53.030Z,9.91
2023-03-25T05:45:15.661Z,9.91
2023-03-25T05:45:38.338Z,10.39
2023-03-25T05:46:13.120Z,11.25
2023-03-25T05:46:46.439Z,10.39
2023-03-25T05:47:17.063Z,9.05
2023-03-25T05:47:49.162Z,8.56
2023-03-25T05:48:21.240Z,8.56
2023-03-25T05:48:53.146Z,9.05
2023-03-25T05:49:15.821Z,9.54
2023-03-25T05:49:38.292Z,10.77
2023-03-25T05:50:13.053Z,11.62
2023-03-25T05:50:48.593Z,11.25
2023-03-25T05:51:17.398Z,12.97
2023-03-25T05:51:49.264Z,12.48
2023-03-25T05:52:20.940Z,13.33
2023-03-25T05:52:52.799Z,16.02
2023-03-25T05:53:15.527Z,15.53
2023-03-25T05:53:37.811Z,16.88
2023-03-25T05:54:14.516Z,16.39
2023-03-25T05:54:47.670Z,16.39
2023-03-25T05:55:18.345Z,16.02
2023-03-25T05:55:49.231Z,16.88
2023-03-25T05:56:20.988Z,17.25
2023-03-25T05:56:54.600Z,16.39
2023-03-25T05:57:16.343Z,15.17
2023-03-25T05:57:39.470Z,14.68
2023-03-25T05:58:12.951Z,14.31
2023-03-25T05:58:48.101Z,11.62
2023-03-25T05:59:18.121Z,11.25
2023-03-25T05:59:49.263Z,9.54
2023-03-25T06:00:25.297Z,9.91
2023-03-25T06:00:48.554Z,10.77
2023-03-25T06:01:32.617Z,11.25
2023-03-25T06:01:56.850Z,10.39
2023-03-25T06:02:19.938Z,10.39
2023-03-25T06:02:42.591Z,9.54
2023-03-25T06:03:17.398Z,9.91
2023-03-25T06:03:49.338Z,9.54
2023-03-25T06:04:21.238Z,9.91
2023-03-25T06:04:53.358Z,10.77
2023-03-25T06:05:16.550Z,11.25
2023-03-25T06:05:38.864Z,13.82
2023-03-25T06:06:13.255Z,16.88
2023-03-25T06:06:45.096Z,20.31
2023-03-25T06:07:17.523Z,21.65
2023-03-25T06:07:50.461Z,22.87
2023-03-25T06:08:21.135Z,23.36
2023-03-25T06:08:53.023Z,22.02
2023-03-25T06:09:17.183Z,22.02
2023-03-25T06:09:39.708Z,22.51
2023-03-25T06:10:13.020Z,23.85
2023-03-25T06:10:44.902Z,24.22
2023-03-25T06:11:16.903Z,25.07
2023-03-25T06:11:51.193Z,25.07
2023-03-25T06:12:20.779Z,23.85
2023-03-25T06:12:53.221Z,25.07
2023-03-25T06:13:18.747Z,25.56
2023-03-25T06:13:39.555Z,26.42
2023-03-25T06:14:13.027Z,26.79
2023-03-25T06:14:44.801Z,26.79
2023-03-25T06:15:17.225Z,27.65
2023-03-25T06:15:51.698Z,28.99
2023-03-25T06:16:21.348Z,29.85
2023-03-25T06:16:53.050Z,30.70
2023-03-25T06:17:16.098Z,31.56
2023-03-25T06:17:38.273Z,35.97
2023-03-25T06:18:12.947Z,37.19
2023-03-25T06:18:44.912Z,38.53
2023-03-25T06:19:11.325Z,37.68
2023-03-25T06:19:53.350Z,35.48
2023-03-25T06:20:21.104Z,33.39
2023-03-25T06:20:53.117Z,29.48
2023-03-25T06:21:15.557Z,27.65
2023-03-25T06:21:38.014Z,24.22
2023-03-25T06:22:13.773Z,24.22
2023-03-25T06:22:49.493Z,25.07
2023-03-25T06:23:14.377Z,26.42
2023-03-25T06:23:48.964Z,30.34
2023-03-25T06:24:20.859Z,33.76
2023-03-25T06:24:50.093Z,35.97
2023-03-25T06:25:21.634Z,35.97
2023-03-25T06:25:56.976Z,32.42
2023-03-25T06:26:20.158Z,31.19
2023-03-25T06:26:42.619Z,28.14
2023-03-25T06:27:17.023Z,24.22
2023-03-25T06:27:48.946Z,22.87
2023-03-25T06:28:20.986Z,20.31
2023-03-25T06:28:54.783Z,20.80
2023-03-25T06:29:15.695Z,19.94
2023-03-25T06:29:38.300Z,19.08
2023-03-25T06:30:12.997Z,17.73
2023-03-25T06:30:44.750Z,16.02
2023-03-25T06:31:16.972Z,16.39
2023-03-25T06:31:48.749Z,18.11
2023-03-25T06:32:21.309Z,22.51
2023-03-25T06:32:55.521Z,25.94
2023-03-25T06:33:15.712Z,28.14
2023-03-25T06:33:56.720Z,32.42
2023-03-25T06:34:19.813Z,34.25
2023-03-25T06:34:41.855Z,39.39
2023-03-25T06:35:17.097Z,48.07
2023-03-25T06:35:50.485Z,58.48
2023-03-25T06:36:21.111Z,72.42
2023-03-25T06:36:53.310Z,87.59
2023-03-25T06:37:15.577Z,97.13
2023-03-25T06:37:37.942Z,100.56
2023-03-25T06:38:12.736Z,88.82
2023-03-25T06:38:45.128Z,74.50
2023-03-25T06:39:17.057Z,59.33
2023-03-25T06:39:49.033Z,49.79
2023-03-25T06:40:20.751Z,42.45